Time;durP1;ratioP1;P1;durP2;ratioP2;P2;SDS_P1;SDS_P2;PMS_P1;PMS_P2;Temp;Humidity;BMP_temperature;BMP_pressure;BME280_temperature;BME280_humidity;BME280_pressure;Samples;Min_cycle;Max_cycle;Signal;HPM_P1;HPM_P2
2023/07/05 00:00:28;;;;;;;2.80;1.17;;;;;;;;;;2096087;28;20048;-64
2023/07/05 00:01:47;;;;;;;3.15;1.33;;;;;;;;;;2097858;28;20540;-62
2023/07/05 00:03:06;;;;;;;5.18;1.02;;;;;;;;;;2098295;28;20036;-61
2023/07/05 00:04:25;;;;;;;1.85;1.02;;;;;;;;;;2099043;28;20099;-61
2023/07/05 00:05:44;;;;;;;3.47;1.35;;;;;;;;;;2098061;28;20024;-62
2023/07/05 00:07:03;;;;;;;2.30;1.00;;;;;;;;;;2099667;28;20211;-61
2023/07/05 00:08:22;;;;;;;2.45;1.27;;;;;;;;;;2098818;28;20389;-61
2023/07/05 00:09:41;;;;;;;2.30;1.00;;;;;;;;;;2094331;28;20016;-61
2023/07/05 00:11:07;;;;;;;2.70;1.10;;;;;;;;;;2088809;28;20025;-61
2023/07/05 00:12:26;;;;;;;1.60;1.20;;;;;;;;;;2095982;28;20473;-61
2023/07/05 00:13:45;;;;;;;3.35;1.42;;;;;;;;;;2095909;28;20127;-61
2023/07/05 00:15:05;;;;;;;4.95;1.30;;;;;;;;;;2098883;28;20072;-62
2023/07/05 00:16:24;;;;;;;1.98;1.23;;;;;;;;;;2097345;28;20028;-60
2023/07/05 00:17:43;;;;;;;2.90;0.98;;;;;;;;;;2097840;28;20035;-61
2023/07/05 00:19:02;;;;;;;2.55;1.23;;;;;;;;;;2095059;28;20036;-61
2023/07/05 00:20:21;;;;;;;2.60;1.00;;;;;;;;;;2099213;28;20036;-60
2023/07/05 00:21:40;;;;;;;2.17;0.98;;;;;;;;;;2099193;28;20037;-60
2023/07/05 00:22:58;;;;;;;4.05;1.20;;;;;;;;;;2098637;28;20024;-60
2023/07/05 00:24:17;;;;;;;1.60;1.00;;;;;;;;;;2097743;28;20016;-61
2023/07/05 00:25:36;;;;;;;1.38;0.90;;;;;;;;;;2095457;28;20033;-60
2023/07/05 00:26:55;;;;;;;1.75;1.08;;;;;;;;;;2098865;28;20032;-60
2023/07/05 00:28:14;;;;;;;6.05;1.67;;;;;;;;;;2098346;28;20028;-60
2023/07/05 00:29:34;;;;;;;1.70;1.10;;;;;;;;;;2097259;28;20044;-60
2023/07/05 00:30:53;;;;;;;3.30;1.27;;;;;;;;;;2095971;28;20641;-60
2023/07/05 00:32:12;;;;;;;7.82;1.40;;;;;;;;;;2094544;28;22004;-60
2023/07/05 00:33:31;;;;;;;2.03;1.10;;;;;;;;;;2097766;28;20469;-60
2023/07/05 00:34:50;;;;;;;1.27;0.80;;;;;;;;;;2100359;28;20024;-61
2023/07/05 00:36:09;;;;;;;4.95;1.45;;;;;;;;;;2097198;28;20024;-61
2023/07/05 00:37:28;;;;;;;3.05;1.25;;;;;;;;;;2097448;28;20024;-61
2023/07/05 00:38:47;;;;;;;2.75;1.13;;;;;;;;;;2100238;28;20024;-60
2023/07/05 00:40:07;;;;;;;2.03;1.10;;;;;;;;;;2097352;28;20380;-60
2023/07/05 00:41:26;;;;;;;5.60;1.15;;;;;;;;;;2097217;28;20393;-61
2023/07/05 00:42:45;;;;;;;3.20;1.10;;;;;;;;;;2097003;28;20271;-61
2023/07/05 00:44:04;;;;;;;2.75;1.05;;;;;;;;;;2097802;28;20113;-61
2023/07/05 00:45:39;;;;;;;3.10;1.23;;;;;;;;;;2097204;28;20032;-60
2023/07/05 00:47:01;;;;;;;3.55;1.02;;;;;;;;;;2098356;28;20469;-61
2023/07/05 00:48:23;;;;;;;2.42;1.27;;;;;;;;;;2098707;28;20016;-62
2023/07/05 00:49:42;;;;;;;3.05;1.00;;;;;;;;;;2096848;28;20028;-62
2023/07/05 00:51:03;;;;;;;1.00;0.90;;;;;;;;;;2099025;28;20111;-63
2023/07/05 00:52:22;;;;;;;2.78;1.00;;;;;;;;;;2099267;28;20568;-62
2023/07/05 00:53:40;;;;;;;1.13;1.02;;;;;;;;;;2096574;28;20041;-61
2023/07/05 00:54:59;;;;;;;3.80;1.00;;;;;;;;;;2098061;28;20059;-61
2023/07/05 00:56:23;;;;;;;3.30;1.23;;;;;;;;;;2088630;28;20036;-61
2023/07/05 00:57:43;;;;;;;3.20;0.90;;;;;;;;;;2095611;28;20103;-61
2023/07/05 00:59:02;;;;;;;1.98;1.17;;;;;;;;;;2099007;28;20037;-62
2023/07/05 01:00:22;;;;;;;3.22;1.30;;;;;;;;;;2096394;28;20044;-61
2023/07/05 01:01:41;;;;;;;1.67;1.10;;;;;;;;;;2098215;28;20471;-61
2023/07/05 01:03:03;;;;;;;1.85;0.75;;;;;;;;;;2097038;28;20064;-61
2023/07/05 01:04:22;;;;;;;2.42;1.10;;;;;;;;;;2099267;28;20024;-61
2023/07/05 01:05:40;;;;;;;5.38;2.03;;;;;;;;;;2097503;28;20017;-61
2023/07/05 01:06:59;;;;;;;1.35;1.20;;;;;;;;;;2097477;28;20033;-61
2023/07/05 01:08:18;;;;;;;2.58;1.23;;;;;;;;;;2090869;28;20025;-61
2023/07/05 01:09:37;;;;;;;3.17;1.13;;;;;;;;;;2096163;28;20079;-61
2023/07/05 01:11:19;;;;;;;4.95;1.48;;;;;;;;;;2100430;28;20044;-60
2023/07/05 01:12:50;;;;;;;3.17;1.08;;;;;;;;;;2090865;28;20033;-61
2023/07/05 01:14:19;;;;;;;2.22;0.90;;;;;;;;;;2096356;28;20041;-61
2023/07/05 01:15:51;;;;;;;1.80;0.85;;;;;;;;;;2098176;28;20024;-61
2023/07/05 01:17:24;;;;;;;2.05;1.23;;;;;;;;;;2100109;28;20029;-65
2023/07/05 01:18:46;;;;;;;3.33;1.10;;;;;;;;;;2099139;28;20033;-61
2023/07/05 01:20:05;;;;;;;1.80;1.20;;;;;;;;;;2099053;28;20033;-61
2023/07/05 01:21:24;;;;;;;3.20;1.25;;;;;;;;;;2090872;28;20032;-61
2023/07/05 01:22:53;;;;;;;2.00;1.00;;;;;;;;;;2097373;28;20020;-61
2023/07/05 01:24:17;;;;;;;3.78;1.20;;;;;;;;;;2098778;28;20428;-61
2023/07/05 01:25:36;;;;;;;4.82;0.95;;;;;;;;;;2097950;28;20029;-60
2023/07/05 01:27:10;;;;;;;4.50;1.92;;;;;;;;;;2098250;28;20020;-61
2023/07/05 01:28:32;;;;;;;4.25;1.25;;;;;;;;;;2101423;28;20032;-63
2023/07/05 01:29:54;;;;;;;2.70;1.20;;;;;;;;;;2099799;28;20025;-61
2023/07/05 01:31:32;;;;;;;3.25;1.17;;;;;;;;;;2100012;28;20029;-61
2023/07/05 01:32:53;;;;;;;1.67;1.20;;;;;;;;;;2099670;28;20024;-60
2023/07/05 01:34:30;;;;;;;1.55;1.10;;;;;;;;;;2095183;28;20112;-61
2023/07/05 01:35:50;;;;;;;2.35;1.05;;;;;;;;;;2098651;28;20027;-61
2023/07/05 01:37:10;;;;;;;2.67;1.00;;;;;;;;;;2098714;28;20040;-61
2023/07/05 01:38:31;;;;;;;2.83;1.17;;;;;;;;;;2099980;28;20389;-61
2023/07/05 01:39:50;;;;;;;2.53;1.15;;;;;;;;;;2095281;28;20531;-61
2023/07/05 01:41:09;;;;;;;3.55;1.15;;;;;;;;;;2099624;28;20060;-61
2023/07/05 01:42:31;;;;;;;3.67;1.25;;;;;;;;;;2089013;28;20021;-61
2023/07/05 01:43:51;;;;;;;1.30;1.17;;;;;;;;;;2095789;28;20028;-62
2023/07/05 01:45:10;;;;;;;2.30;1.42;;;;;;;;;;2097004;28;20107;-62
2023/07/05 01:46:34;;;;;;;1.83;0.82;;;;;;;;;;2096951;28;20016;-62
2023/07/05 01:48:03;;;;;;;1.50;0.88;;;;;;;;;;2098032;28;20056;-61
2023/07/05 01:49:22;;;;;;;3.05;1.38;;;;;;;;;;2097335;28;20029;-61
2023/07/05 01:50:42;;;;;;;2.58;1.30;;;;;;;;;;2097647;28;20032;-61
2023/07/05 01:52:07;;;;;;;1.85;1.13;;;;;;;;;;2094599;28;20040;-60
2023/07/05 01:53:34;;;;;;;4.65;1.35;;;;;;;;;;2096160;28;20439;-61
2023/07/05 01:55:01;;;;;;;3.92;1.10;;;;;;;;;;2091371;28;20029;-61
2023/07/05 01:56:23;;;;;;;2.88;1.02;;;;;;;;;;2092813;28;20114;-61
2023/07/05 01:58:08;;;;;;;3.00;1.15;;;;;;;;;;2093622;28;20150;-63
2023/07/05 01:59:31;;;;;;;3.30;1.27;;;;;;;;;;2098245;28;20420;-61
2023/07/05 02:00:51;;;;;;;2.80;0.88;;;;;;;;;;2097269;28;20040;-62
2023/07/05 02:02:11;;;;;;;2.22;1.20;;;;;;;;;;2089310;28;20024;-61
2023/07/05 02:03:30;;;;;;;3.78;1.38;;;;;;;;;;2093887;28;20024;-61
2023/07/05 02:04:50;;;;;;;2.90;1.60;;;;;;;;;;2098616;28;20037;-60
2023/07/05 02:06:10;;;;;;;3.25;1.77;;;;;;;;;;2095531;28;20029;-61
2023/07/05 02:07:30;;;;;;;2.80;1.20;;;;;;;;;;2098631;28;20111;-60
2023/07/05 02:08:50;;;;;;;3.47;1.70;;;;;;;;;;2095766;28;20104;-61
2023/07/05 02:10:09;;;;;;;3.00;1.45;;;;;;;;;;2098057;28;20111;-60
2023/07/05 02:11:28;;;;;;;2.47;1.10;;;;;;;;;;2097603;28;20052;-61
2023/07/05 02:12:47;;;;;;;2.45;1.25;;;;;;;;;;2099286;28;20036;-61
2023/07/05 02:14:05;;;;;;;3.47;1.30;;;;;;;;;;2095494;28;20449;-61
2023/07/05 02:15:24;;;;;;;1.90;1.45;;;;;;;;;;2096692;28;20033;-63
2023/07/05 02:16:43;;;;;;;2.10;1.80;;;;;;;;;;2098931;28;20016;-62
2023/07/05 02:18:02;;;;;;;1.73;1.23;;;;;;;;;;2095977;28;20032;-61
2023/07/05 02:19:21;;;;;;;1.80;1.10;;;;;;;;;;2098504;28;20032;-63
2023/07/05 02:20:41;;;;;;;1.67;1.33;;;;;;;;;;2096563;28;20029;-61
2023/07/05 02:22:02;;;;;;;1.08;1.00;;;;;;;;;;2098948;28;20020;-61
2023/07/05 02:23:22;;;;;;;1.25;1.15;;;;;;;;;;2098409;28;20058;-63
2023/07/05 02:24:41;;;;;;;3.63;1.60;;;;;;;;;;2097826;28;20107;-62
2023/07/05 02:26:03;;;;;;;1.40;1.30;;;;;;;;;;2096241;28;20033;-62
2023/07/05 02:27:22;;;;;;;2.80;1.40;;;;;;;;;;2099938;28;20024;-63
2023/07/05 02:28:41;;;;;;;2.97;1.45;;;;;;;;;;2099920;28;20021;-61
2023/07/05 02:30:00;;;;;;;3.72;1.60;;;;;;;;;;2098111;28;20103;-61
2023/07/05 02:31:19;;;;;;;1.45;1.30;;;;;;;;;;2095810;28;20532;-62
2023/07/05 02:32:38;;;;;;;2.05;0.98;;;;;;;;;;2101119;28;20036;-63
2023/07/05 02:33:57;;;;;;;2.13;1.60;;;;;;;;;;2097772;28;20062;-60
2023/07/05 02:35:16;;;;;;;2.28;1.25;;;;;;;;;;2100651;28;20028;-60
2023/07/05 02:36:35;;;;;;;2.58;1.50;;;;;;;;;;2101424;28;20480;-62
2023/07/05 02:37:55;;;;;;;1.52;1.10;;;;;;;;;;2098234;28;20563;-60
2023/07/05 02:39:14;;;;;;;2.00;1.30;;;;;;;;;;2098761;28;20020;-61
2023/07/05 02:40:33;;;;;;;2.40;1.17;;;;;;;;;;2097822;28;20036;-62
2023/07/05 02:41:52;;;;;;;4.30;1.40;;;;;;;;;;2095270;28;20448;-61
2023/07/05 02:43:11;;;;;;;1.63;1.30;;;;;;;;;;2097338;28;20060;-61
2023/07/05 02:44:30;;;;;;;3.28;1.73;;;;;;;;;;2099317;28;20037;-61
2023/07/05 02:45:49;;;;;;;2.88;1.92;;;;;;;;;;2086746;28;20487;-60
2023/07/05 02:47:07;;;;;;;2.20;1.45;;;;;;;;;;2091833;28;20032;-62
2023/07/05 02:48:26;;;;;;;2.08;1.30;;;;;;;;;;2099852;28;20021;-63
2023/07/05 02:49:45;;;;;;;1.60;1.50;;;;;;;;;;2096946;28;20521;-60
2023/07/05 02:51:05;;;;;;;2.13;1.48;;;;;;;;;;2094193;28;20041;-61
2023/07/05 02:52:24;;;;;;;3.63;1.67;;;;;;;;;;2096403;28;20032;-62
2023/07/05 02:53:43;;;;;;;2.50;1.60;;;;;;;;;;2099570;28;20024;-60
2023/07/05 02:55:02;;;;;;;3.08;1.55;;;;;;;;;;2100465;28;20511;-62
2023/07/05 02:56:21;;;;;;;1.35;1.27;;;;;;;;;;2097025;28;20064;-62
2023/07/05 02:57:40;;;;;;;1.83;1.33;;;;;;;;;;2098567;28;20036;-60
2023/07/05 02:58:59;;;;;;;3.97;1.48;;;;;;;;;;2099959;28;20443;-60
2023/07/05 03:00:20;;;;;;;2.03;1.40;;;;;;;;;;2099438;28;20048;-60
2023/07/05 03:01:39;;;;;;;3.55;1.90;;;;;;;;;;2101125;28;20123;-61
2023/07/05 03:02:58;;;;;;;2.53;1.63;;;;;;;;;;2099179;28;20143;-60
2023/07/05 03:04:17;;;;;;;3.78;1.90;;;;;;;;;;2100511;28;20024;-60
2023/07/05 03:05:36;;;;;;;4.00;1.90;;;;;;;;;;2099604;28;20029;-62
2023/07/05 03:06:55;;;;;;;3.53;1.60;;;;;;;;;;2099409;28;20024;-60
2023/07/05 03:08:14;;;;;;;2.92;1.92;;;;;;;;;;2091916;28;20036;-61
2023/07/05 03:09:32;;;;;;;4.45;2.20;;;;;;;;;;2095549;28;20025;-60
2023/07/05 03:10:53;;;;;;;3.72;2.05;;;;;;;;;;2099763;28;20040;-65
2023/07/05 03:12:12;;;;;;;2.80;1.80;;;;;;;;;;2099869;28;20033;-62
2023/07/05 03:13:32;;;;;;;4.55;2.00;;;;;;;;;;2100512;28;20059;-61
2023/07/05 03:14:52;;;;;;;1.90;1.65;;;;;;;;;;2097833;28;20025;-61
2023/07/05 03:16:11;;;;;;;3.90;2.20;;;;;;;;;;2097556;28;20032;-61
2023/07/05 03:17:30;;;;;;;2.78;1.98;;;;;;;;;;2099653;28;20111;-62
2023/07/05 03:18:49;;;;;;;4.85;2.50;;;;;;;;;;2092330;28;20020;-60
2023/07/05 03:20:07;;;;;;;2.38;2.10;;;;;;;;;;2092583;28;20029;-61
2023/07/05 03:21:26;;;;;;;3.33;2.05;;;;;;;;;;2094076;28;20029;-61
2023/07/05 03:22:45;;;;;;;4.72;2.08;;;;;;;;;;2096207;28;20012;-61
2023/07/05 03:24:05;;;;;;;4.15;2.33;;;;;;;;;;2097483;28;20590;-61
2023/07/05 03:25:24;;;;;;;3.13;2.28;;;;;;;;;;2089993;28;20108;-61
2023/07/05 03:26:43;;;;;;;3.05;2.17;;;;;;;;;;2093085;28;20500;-61
2023/07/05 03:28:03;;;;;;;4.70;2.28;;;;;;;;;;2098944;28;20070;-61
2023/07/05 03:29:22;;;;;;;4.75;2.65;;;;;;;;;;2099301;28;20033;-63
2023/07/05 03:30:41;;;;;;;4.78;2.35;;;;;;;;;;2097833;28;20115;-61
2023/07/05 03:32:01;;;;;;;7.05;2.53;;;;;;;;;;2097533;28;20029;-62
2023/07/05 03:33:20;;;;;;;4.18;2.88;;;;;;;;;;2098627;28;20480;-61
2023/07/05 03:34:38;;;;;;;3.30;2.28;;;;;;;;;;2098670;28;20029;-60
2023/07/05 03:35:59;;;;;;;3.10;2.28;;;;;;;;;;2088821;28;20024;-62
2023/07/05 03:37:18;;;;;;;6.32;2.70;;;;;;;;;;2094085;28;20021;-62
2023/07/05 03:38:37;;;;;;;3.20;2.40;;;;;;;;;;2099264;28;20110;-61
2023/07/05 03:39:56;;;;;;;3.67;2.45;;;;;;;;;;2098087;28;20107;-61
2023/07/05 03:41:17;;;;;;;7.93;3.03;;;;;;;;;;2097356;28;20036;-61
2023/07/05 03:42:37;;;;;;;2.92;2.47;;;;;;;;;;2098612;28;20031;-60
2023/07/05 03:43:57;;;;;;;3.83;2.40;;;;;;;;;;2095016;28;20028;-61
2023/07/05 03:45:16;;;;;;;3.67;2.85;;;;;;;;;;2099440;28;20024;-61
2023/07/05 03:46:35;;;;;;;6.03;2.97;;;;;;;;;;2096407;28;20104;-62
2023/07/05 03:47:54;;;;;;;3.80;2.70;;;;;;;;;;2097273;28;20535;-61
2023/07/05 03:49:13;;;;;;;7.68;3.28;;;;;;;;;;2097026;28;20427;-61
2023/07/05 03:50:34;;;;;;;6.63;2.97;;;;;;;;;;2099236;28;20024;-63
2023/07/05 03:51:53;;;;;;;4.07;3.20;;;;;;;;;;2097986;28;20033;-61
2023/07/05 03:53:11;;;;;;;4.78;2.72;;;;;;;;;;2097398;28;20492;-63
2023/07/05 03:54:30;;;;;;;6.10;3.30;;;;;;;;;;2095780;28;20662;-62
2023/07/05 03:55:50;;;;;;;3.67;3.10;;;;;;;;;;2095705;28;20013;-61
2023/07/05 03:57:09;;;;;;;9.48;3.05;;;;;;;;;;2095890;28;20033;-63
2023/07/05 03:58:28;;;;;;;8.30;3.60;;;;;;;;;;2095681;28;20032;-61
2023/07/05 03:59:47;;;;;;;3.88;3.30;;;;;;;;;;2097347;28;20536;-61
2023/07/05 04:01:09;;;;;;;7.53;3.53;;;;;;;;;;2097603;28;20397;-61
2023/07/05 04:02:27;;;;;;;4.25;3.47;;;;;;;;;;2094502;28;20028;-61
2023/07/05 04:03:48;;;;;;;5.25;3.47;;;;;;;;;;2087756;28;20021;-62
2023/07/05 04:05:07;;;;;;;5.30;3.40;;;;;;;;;;2094371;28;20032;-62
2023/07/05 04:06:27;;;;;;;5.20;3.53;;;;;;;;;;2094718;28;20389;-61
2023/07/05 04:07:46;;;;;;;6.97;3.80;;;;;;;;;;2097189;28;20033;-61
2023/07/05 04:09:05;;;;;;;7.32;3.47;;;;;;;;;;2096309;28;20029;-60
2023/07/05 04:10:24;;;;;;;10.02;4.30;;;;;;;;;;2099608;28;20489;-61
2023/07/05 04:11:43;;;;;;;5.72;3.55;;;;;;;;;;2084701;28;20047;-61
2023/07/05 04:13:02;;;;;;;9.15;3.92;;;;;;;;;;2094462;28;20040;-60
2023/07/05 04:14:21;;;;;;;7.80;3.80;;;;;;;;;;2097856;28;20052;-60
2023/07/05 04:15:40;;;;;;;8.73;3.88;;;;;;;;;;2092785;28;20036;-61
2023/07/05 04:17:00;;;;;;;9.07;4.10;;;;;;;;;;2097621;28;20036;-61
2023/07/05 04:18:18;;;;;;;10.73;4.18;;;;;;;;;;2092990;28;20029;-61
2023/07/05 04:19:37;;;;;;;10.45;4.45;;;;;;;;;;2097075;28;20037;-61
2023/07/05 04:20:57;;;;;;;6.72;3.70;;;;;;;;;;2098697;28;20028;-67
2023/07/05 04:22:16;;;;;;;11.60;4.15;;;;;;;;;;2097670;28;20020;-61
2023/07/05 04:23:35;;;;;;;6.80;3.95;;;;;;;;;;2091607;28;20506;-63
2023/07/05 04:24:53;;;;;;;8.38;3.67;;;;;;;;;;2097229;28;20013;-61
2023/07/05 04:26:14;;;;;;;5.65;3.78;;;;;;;;;;2092424;28;20032;-61
2023/07/05 04:27:33;;;;;;;5.85;3.75;;;;;;;;;;2097709;28;20028;-61
2023/07/05 04:28:52;;;;;;;5.43;3.67;;;;;;;;;;2096373;28;20042;-61
2023/07/05 04:30:12;;;;;;;7.15;4.15;;;;;;;;;;2088405;28;20016;-63
2023/07/05 04:31:31;;;;;;;5.57;3.55;;;;;;;;;;2092554;28;20036;-61
2023/07/05 04:32:50;;;;;;;11.40;5.18;;;;;;;;;;2098548;28;20033;-61
2023/07/05 04:34:09;;;;;;;8.13;3.67;;;;;;;;;;2095820;28;20041;-61
2023/07/05 04:35:28;;;;;;;13.02;4.93;;;;;;;;;;2093893;28;20028;-61
2023/07/05 04:36:47;;;;;;;7.53;4.53;;;;;;;;;;2099263;28;20036;-62
2023/07/05 04:38:08;;;;;;;9.40;4.72;;;;;;;;;;2097502;28;20031;-61
2023/07/05 04:39:27;;;;;;;11.43;4.72;;;;;;;;;;2096097;28;20033;-62
2023/07/05 04:40:46;;;;;;;11.10;5.20;;;;;;;;;;2088168;28;20119;-62
2023/07/05 04:42:04;;;;;;;11.02;4.90;;;;;;;;;;2083248;28;20021;-61
2023/07/05 04:43:25;;;;;;;8.63;4.90;;;;;;;;;;2095073;28;20056;-62
2023/07/05 04:44:43;;;;;;;5.07;4.35;;;;;;;;;;2097017;28;20028;-61
2023/07/05 04:46:02;;;;;;;12.02;4.68;;;;;;;;;;2095614;28;20423;-62
2023/07/05 04:47:21;;;;;;;9.38;4.72;;;;;;;;;;2093835;28;20431;-64
2023/07/05 04:48:40;;;;;;;8.18;4.18;;;;;;;;;;2092072;28;20028;-62
2023/07/05 04:49:59;;;;;;;12.48;5.03;;;;;;;;;;2096523;28;20103;-60
2023/07/05 04:51:18;;;;;;;10.88;4.80;;;;;;;;;;2095447;28;20036;-61
2023/07/05 04:52:37;;;;;;;13.45;4.80;;;;;;;;;;2097804;28;20515;-60
2023/07/05 04:53:56;;;;;;;8.77;4.78;;;;;;;;;;2094365;28;20032;-60
2023/07/05 04:55:15;;;;;;;12.63;4.80;;;;;;;;;;2097062;28;20045;-62
2023/07/05 04:56:34;;;;;;;12.20;4.80;;;;;;;;;;2100691;28;20493;-61
2023/07/05 04:57:53;;;;;;;8.35;4.00;;;;;;;;;;2097830;28;20048;-60
2023/07/05 04:59:12;;;;;;;15.13;4.40;;;;;;;;;;2098066;28;20037;-61
2023/07/05 05:00:36;;;;;;;10.63;4.70;;;;;;;;;;2097678;28;20045;-63
2023/07/05 05:01:55;;;;;;;15.23;4.45;;;;;;;;;;2095601;28;20032;-60
2023/07/05 05:03:15;;;;;;;8.38;4.53;;;;;;;;;;2096716;28;20478;-61
2023/07/05 05:04:34;;;;;;;13.85;4.82;;;;;;;;;;2099673;28;20032;-60
2023/07/05 05:05:54;;;;;;;11.70;4.38;;;;;;;;;;2096423;28;20481;-61
2023/07/05 05:07:13;;;;;;;9.43;4.25;;;;;;;;;;2099742;28;20390;-63
2023/07/05 05:08:32;;;;;;;12.45;4.45;;;;;;;;;;2098320;28;20385;-61
2023/07/05 05:09:50;;;;;;;14.35;4.90;;;;;;;;;;2099636;28;20430;-62
2023/07/05 05:11:10;;;;;;;10.68;4.50;;;;;;;;;;2096350;28;20115;-60
2023/07/05 05:12:29;;;;;;;6.10;3.72;;;;;;;;;;2100203;28;20024;-62
2023/07/05 05:13:49;;;;;;;15.90;4.50;;;;;;;;;;2099233;28;20024;-60
2023/07/05 05:15:08;;;;;;;12.23;4.90;;;;;;;;;;2096642;28;20029;-60
2023/07/05 05:16:26;;;;;;;14.13;4.53;;;;;;;;;;2097558;28;20024;-61
2023/07/05 05:17:45;;;;;;;11.00;4.22;;;;;;;;;;2100023;28;20709;-60
2023/07/05 05:19:04;;;;;;;10.20;4.53;;;;;;;;;;2099008;28;20036;-60
2023/07/05 05:20:23;;;;;;;12.60;4.88;;;;;;;;;;2094352;28;20587;-63
2023/07/05 05:21:42;;;;;;;9.15;4.72;;;;;;;;;;2100021;28;20519;-62
2023/07/05 05:23:01;;;;;;;12.70;4.18;;;;;;;;;;2099231;28;20037;-60
2023/07/05 05:24:20;;;;;;;14.27;4.80;;;;;;;;;;2100371;28;20473;-60
2023/07/05 05:25:42;;;;;;;12.75;4.53;;;;;;;;;;2097620;28;20032;-61
2023/07/05 05:27:01;;;;;;;16.52;4.95;;;;;;;;;;2094193;28;20031;-61
2023/07/05 05:28:20;;;;;;;19.30;5.03;;;;;;;;;;2096871;28;20032;-61
2023/07/05 05:29:39;;;;;;;13.38;4.47;;;;;;;;;;2093322;28;20033;-61
2023/07/05 05:31:08;;;;;;;13.85;4.35;;;;;;;;;;2089579;28;20081;-63
2023/07/05 05:32:28;;;;;;;13.27;4.13;;;;;;;;;;2097119;28;20423;-61
2023/07/05 05:33:47;;;;;;;10.60;3.78;;;;;;;;;;2094196;28;20029;-62
2023/07/05 05:35:06;;;;;;;11.52;4.22;;;;;;;;;;2083439;28;20029;-61
2023/07/05 05:36:24;;;;;;;9.43;4.20;;;;;;;;;;2092112;28;20100;-61
2023/07/05 05:37:43;;;;;;;15.18;3.70;;;;;;;;;;2098730;28;20496;-62
2023/07/05 05:39:02;;;;;;;12.82;4.07;;;;;;;;;;2099677;28;20032;-61
2023/07/05 05:40:22;;;;;;;11.32;3.90;;;;;;;;;;2097064;28;20036;-62
2023/07/05 05:41:41;;;;;;;14.63;4.15;;;;;;;;;;2097068;28;20040;-62
2023/07/05 05:43:00;;;;;;;14.23;4.40;;;;;;;;;;2098606;28;20016;-62
2023/07/05 05:44:19;;;;;;;13.32;4.43;;;;;;;;;;2095193;28;20024;-61
2023/07/05 05:45:37;;;;;;;13.48;4.20;;;;;;;;;;2088054;28;20388;-61
2023/07/05 05:46:56;;;;;;;10.70;3.88;;;;;;;;;;2092745;28;20389;-61
2023/07/05 05:48:15;;;;;;;10.75;4.03;;;;;;;;;;2098219;28;20041;-62
2023/07/05 05:49:34;;;;;;;14.10;4.07;;;;;;;;;;2098153;28;20032;-62
2023/07/05 05:50:53;;;;;;;13.10;3.80;;;;;;;;;;2092771;28;20032;-64
2023/07/05 05:52:12;;;;;;;13.27;4.15;;;;;;;;;;2095663;28;20093;-64
2023/07/05 05:53:31;;;;;;;12.88;4.50;;;;;;;;;;2096672;28;21885;-64
2023/07/05 05:54:50;;;;;;;10.52;4.35;;;;;;;;;;2095355;28;20036;-64
2023/07/05 05:56:09;;;;;;;10.55;3.97;;;;;;;;;;2099111;28;20070;-65
2023/07/05 05:57:28;;;;;;;9.73;3.70;;;;;;;;;;2083023;28;20143;-67
2023/07/05 05:58:48;;;;;;;6.47;3.88;;;;;;;;;;2090369;28;20482;-64
2023/07/05 06:00:09;;;;;;;12.35;3.88;;;;;;;;;;2095674;28;20217;-65
2023/07/05 06:01:28;;;;;;;11.82;3.50;;;;;;;;;;2092194;28;20036;-61
2023/07/05 06:02:51;;;;;;;15.98;3.83;;;;;;;;;;2093257;28;20032;-64
2023/07/05 06:04:11;;;;;;;8.63;3.55;;;;;;;;;;2095871;28;20111;-62
2023/07/05 06:05:31;;;;;;;15.20;4.25;;;;;;;;;;2097070;28;20020;-62
2023/07/05 06:06:50;;;;;;;11.32;3.33;;;;;;;;;;2100032;28;20509;-62
2023/07/05 06:08:09;;;;;;;8.27;3.47;;;;;;;;;;2099088;28;20066;-62
2023/07/05 06:09:28;;;;;;;9.70;3.97;;;;;;;;;;2100297;28;20021;-62
2023/07/05 06:10:54;;;;;;;11.63;3.25;;;;;;;;;;2099922;28;20421;-62
2023/07/05 06:12:13;;;;;;;7.00;3.30;;;;;;;;;;2099611;28;20493;-62
2023/07/05 06:13:32;;;;;;;12.15;3.50;;;;;;;;;;2096246;28;20020;-63
2023/07/05 06:14:51;;;;;;;7.43;3.40;;;;;;;;;;2100937;28;20028;-63
2023/07/05 06:16:10;;;;;;;15.40;3.90;;;;;;;;;;2102055;28;20024;-62
2023/07/05 06:17:29;;;;;;;7.43;3.17;;;;;;;;;;2090910;28;20486;-62
2023/07/05 06:18:48;;;;;;;9.23;3.33;;;;;;;;;;2097307;28;20056;-62
2023/07/05 06:20:08;;;;;;;8.52;3.72;;;;;;;;;;2098399;28;20059;-61
2023/07/05 06:21:27;;;;;;;6.93;3.60;;;;;;;;;;2099073;28;20032;-62
2023/07/05 06:22:46;;;;;;;9.82;3.63;;;;;;;;;;2100797;28;20103;-62
2023/07/05 06:24:05;;;;;;;8.25;3.45;;;;;;;;;;2100189;28;20057;-62
2023/07/05 06:25:24;;;;;;;11.07;3.40;;;;;;;;;;2099834;28;20028;-62
2023/07/05 06:26:43;;;;;;;11.43;3.80;;;;;;;;;;2101040;28;20036;-63
2023/07/05 06:28:02;;;;;;;8.43;3.13;;;;;;;;;;2100091;28;20020;-62
2023/07/05 06:29:21;;;;;;;9.77;3.50;;;;;;;;;;2098783;28;20485;-62
2023/07/05 06:30:40;;;;;;;7.10;2.95;;;;;;;;;;2098814;28;20111;-62
2023/07/05 06:32:00;;;;;;;11.02;3.90;;;;;;;;;;2099375;28;20624;-62
2023/07/05 06:33:19;;;;;;;9.45;3.35;;;;;;;;;;2100644;28;20024;-62
2023/07/05 06:34:37;;;;;;;11.40;3.08;;;;;;;;;;2088814;28;20498;-62
2023/07/05 06:36:00;;;;;;;8.95;3.50;;;;;;;;;;2096382;28;20035;-62
2023/07/05 06:37:19;;;;;;;8.52;3.28;;;;;;;;;;2099790;28;20033;-59
2023/07/05 06:38:38;;;;;;;8.40;3.30;;;;;;;;;;2098700;28;20471;-59
2023/07/05 06:39:57;;;;;;;6.60;3.22;;;;;;;;;;2095495;28;20033;-60
2023/07/05 06:41:16;;;;;;;11.98;3.72;;;;;;;;;;2096582;28;20028;-59
2023/07/05 06:42:35;;;;;;;11.77;3.70;;;;;;;;;;2099237;28;20020;-60
2023/07/05 06:43:54;;;;;;;6.78;3.03;;;;;;;;;;2099995;28;20016;-60
2023/07/05 06:45:13;;;;;;;10.23;3.70;;;;;;;;;;2100352;28;20028;-60
2023/07/05 06:46:31;;;;;;;11.27;3.75;;;;;;;;;;2097296;28;20477;-60
2023/07/05 06:47:51;;;;;;;8.80;3.15;;;;;;;;;;2101018;28;20032;-62
2023/07/05 06:49:09;;;;;;;9.15;3.70;;;;;;;;;;2099865;28;20060;-61
2023/07/05 06:50:28;;;;;;;10.05;3.40;;;;;;;;;;2096697;28;20033;-62
2023/07/05 06:51:47;;;;;;;7.80;2.85;;;;;;;;;;2099687;28;20020;-60
2023/07/05 06:53:06;;;;;;;11.05;3.50;;;;;;;;;;2098870;28;20520;-60
2023/07/05 06:54:25;;;;;;;5.88;3.45;;;;;;;;;;2098826;28;20554;-61
2023/07/05 06:55:46;;;;;;;8.63;3.05;;;;;;;;;;2089693;28;20033;-61
2023/07/05 06:57:05;;;;;;;9.48;3.17;;;;;;;;;;2097261;28;20041;-60
2023/07/05 06:58:24;;;;;;;7.05;2.83;;;;;;;;;;2100747;28;20032;-59
2023/07/05 06:59:44;;;;;;;6.10;3.10;;;;;;;;;;2097035;28;20035;-61
2023/07/05 07:01:03;;;;;;;6.55;2.85;;;;;;;;;;2097968;28;20044;-62
2023/07/05 07:02:22;;;;;;;8.27;3.47;;;;;;;;;;2099062;28;20068;-60
2023/07/05 07:03:41;;;;;;;5.00;2.90;;;;;;;;;;2099261;28;20028;-60
2023/07/05 07:05:01;;;;;;;5.10;3.05;;;;;;;;;;2097559;28;20036;-60
2023/07/05 07:06:20;;;;;;;12.32;3.10;;;;;;;;;;2101047;28;20024;-59
2023/07/05 07:07:39;;;;;;;7.95;3.15;;;;;;;;;;2101871;28;20481;-61
2023/07/05 07:08:58;;;;;;;6.82;3.10;;;;;;;;;;2100310;28;20020;-60
2023/07/05 07:10:17;;;;;;;13.38;3.00;;;;;;;;;;2099532;28;21122;-59
2023/07/05 07:11:36;;;;;;;10.15;3.05;;;;;;;;;;2100663;28;20489;-60
2023/07/05 07:12:55;;;;;;;5.65;2.58;;;;;;;;;;2100721;28;20310;-59
2023/07/05 07:14:14;;;;;;;6.72;3.00;;;;;;;;;;2098569;28;20028;-61
2023/07/05 07:15:32;;;;;;;5.00;2.00;;;;;;;;;;2101403;28;20024;-60
2023/07/05 07:16:51;;;;;;;6.22;3.05;;;;;;;;;;2098924;28;20024;-60
2023/07/05 07:18:10;;;;;;;6.45;2.60;;;;;;;;;;2100201;28;20166;-60
2023/07/05 07:19:29;;;;;;;4.30;2.42;;;;;;;;;;2100508;28;20060;-60
2023/07/05 07:20:53;;;;;;;4.50;2.38;;;;;;;;;;2099240;28;20028;-62
2023/07/05 07:22:12;;;;;;;4.45;2.35;;;;;;;;;;2099320;28;20036;-61
2023/07/05 07:23:31;;;;;;;3.95;2.28;;;;;;;;;;2100286;28;20046;-60
2023/07/05 07:24:51;;;;;;;7.18;2.30;;;;;;;;;;2099840;28;20024;-59
2023/07/05 07:26:20;;;;;;;6.93;2.50;;;;;;;;;;2099877;28;20024;-60
2023/07/05 07:27:39;;;;;;;3.42;2.22;;;;;;;;;;2097462;28;20041;-61
2023/07/05 07:28:58;;;;;;;6.22;1.98;;;;;;;;;;2096652;28;20075;-60
2023/07/05 07:30:17;;;;;;;5.80;2.13;;;;;;;;;;2095654;28;20036;-59
2023/07/05 07:31:36;;;;;;;5.10;2.30;;;;;;;;;;2096611;28;20492;-60
2023/07/05 07:32:55;;;;;;;5.00;2.42;;;;;;;;;;2100070;28;20028;-61
2023/07/05 07:34:14;;;;;;;3.85;2.70;;;;;;;;;;2098245;28;20036;-62
2023/07/05 07:35:33;;;;;;;8.10;2.40;;;;;;;;;;2099159;28;20385;-60
2023/07/05 07:36:52;;;;;;;7.43;2.17;;;;;;;;;;2097250;28;20474;-61
2023/07/05 07:38:11;;;;;;;4.38;2.30;;;;;;;;;;2099404;28;20446;-61
2023/07/05 07:39:30;;;;;;;5.10;1.98;;;;;;;;;;2098614;28;20028;-60
2023/07/05 07:40:49;;;;;;;6.65;2.53;;;;;;;;;;2093518;28;20028;-60
2023/07/05 07:42:08;;;;;;;7.38;2.30;;;;;;;;;;2099025;28;20033;-61
2023/07/05 07:43:26;;;;;;;5.65;1.80;;;;;;;;;;2097718;28;20062;-61
2023/07/05 07:44:45;;;;;;;6.63;2.58;;;;;;;;;;2097632;28;20673;-60
2023/07/05 07:46:09;;;;;;;8.13;2.63;;;;;;;;;;2096969;28;20056;-60
2023/07/05 07:47:28;;;;;;;5.55;2.50;;;;;;;;;;2096325;28;20063;-61
2023/07/05 07:48:48;;;;;;;4.18;2.05;;;;;;;;;;2098534;28;20016;-60
2023/07/05 07:50:09;;;;;;;3.60;1.63;;;;;;;;;;2098449;28;20021;-60
2023/07/05 07:51:29;;;;;;;3.05;1.88;;;;;;;;;;2099592;28;20029;-60
2023/07/05 07:52:49;;;;;;;5.57;2.50;;;;;;;;;;2100901;28;20106;-60
2023/07/05 07:54:12;;;;;;;3.03;2.35;;;;;;;;;;2098934;28;20028;-60
2023/07/05 07:55:31;;;;;;;1.85;1.60;;;;;;;;;;2096299;28;20487;-61
2023/07/05 07:56:50;;;;;;;3.63;1.95;;;;;;;;;;2099380;28;20103;-60
2023/07/05 07:58:09;;;;;;;4.50;1.63;;;;;;;;;;2100380;28;20021;-61